createdAt,value
2023-05-11T00:00:36.530Z,100.00
2023-05-11T00:03:03.174Z,100.00
2023-05-11T00:05:29.682Z,100.00
2023-05-11T00:07:56.119Z,100.00
2023-05-11T00:10:22.782Z,100.00
2023-05-11T00:12:49.340Z,100.00
2023-05-11T00:15:15.872Z,100.00
2023-05-11T00:17:42.492Z,100.00
2023-05-11T00:20:09.478Z,100.00
2023-05-11T00:22:35.967Z,100.00
2023-05-11T00:25:02.812Z,100.00
2023-05-11T00:27:29.265Z,100.00
2023-05-11T00:29:55.810Z,100.00
2023-05-11T00:32:22.380Z,100.00
2023-05-11T00:34:48.907Z,100.00
2023-05-11T00:37:15.410Z,100.00
2023-05-11T00:39:41.919Z,100.00
2023-05-11T00:42:08.396Z,100.00
2023-05-11T00:44:34.891Z,100.00
2023-05-11T00:47:01.495Z,100.00
2023-05-11T00:49:28.278Z,100.00
2023-05-11T00:51:55.034Z,100.00
2023-05-11T00:54:21.573Z,100.00
2023-05-11T00:56:48.369Z,100.00
2023-05-11T00:59:15.959Z,100.00
2023-05-11T01:01:43.097Z,100.00
2023-05-11T01:04:10.001Z,100.00
2023-05-11T01:07:05.686Z,100.00
2023-05-11T01:09:35.251Z,100.00
2023-05-11T01:12:27.463Z,100.00
2023-05-11T01:15:11.815Z,100.00
2023-05-11T01:17:52.998Z,100.00
2023-05-11T01:20:25.525Z,100.00
2023-05-11T01:23:18.117Z,100.00
2023-05-11T01:25:51.069Z,100.00
2023-05-11T01:28:40.941Z,100.00
2023-05-11T01:31:10.753Z,100.00
2023-05-11T01:33:43.389Z,100.00
2023-05-11T01:36:12.668Z,100.00
2023-05-11T01:38:42.482Z,100.00
2023-05-11T01:41:14.944Z,100.00
2023-05-11T01:43:44.226Z,100.00
2023-05-11T01:46:12.853Z,100.00
2023-05-11T01:48:42.399Z,100.00
2023-05-11T01:51:09.622Z,100.00
2023-05-11T01:53:38.360Z,100.00
2023-05-11T01:56:06.781Z,100.00
2023-05-11T01:58:36.878Z,100.00
2023-05-11T02:01:04.603Z,100.00
2023-05-11T02:03:33.116Z,100.00
2023-05-11T02:06:01.848Z,100.00
2023-05-11T02:08:32.008Z,100.00
2023-05-11T02:10:59.685Z,100.00
2023-05-11T02:13:29.953Z,100.00
2023-05-11T02:15:57.586Z,100.00
2023-05-11T02:18:24.346Z,100.00
2023-05-11T02:20:59.510Z,100.00
2023-05-11T02:23:27.748Z,100.00
2023-05-11T02:25:55.338Z,100.00
2023-05-11T02:28:22.196Z,100.00
2023-05-11T02:30:52.216Z,100.00
2023-05-11T02:33:24.697Z,100.00
2023-05-11T02:35:55.001Z,100.00
2023-05-11T02:38:29.687Z,100.00
2023-05-11T02:41:00.761Z,100.00
2023-05-11T02:43:33.369Z,100.00
2023-05-11T02:46:05.091Z,100.00
2023-05-11T02:48:42.745Z,100.00
2023-05-11T02:51:12.350Z,100.00
2023-05-11T02:53:46.795Z,100.00
2023-05-11T02:56:13.385Z,100.00
2023-05-11T02:58:40.013Z,100.00
2023-05-11T03:01:22.639Z,100.00
2023-05-11T03:03:49.480Z,100.00
2023-05-11T03:06:15.982Z,100.00
2023-05-11T03:08:42.840Z,100.00
2023-05-11T03:11:11.068Z,100.00
2023-05-11T03:13:39.049Z,100.00
2023-05-11T03:16:07.676Z,100.00
2023-05-11T03:18:36.318Z,100.00
2023-05-11T03:21:03.297Z,100.00
2023-05-11T03:23:31.445Z,100.00
2023-05-11T03:26:00.028Z,100.00
2023-05-11T03:28:28.019Z,100.00
2023-05-11T03:31:00.380Z,100.00
2023-05-11T03:33:27.057Z,100.00
2023-05-11T03:35:55.082Z,100.00
2023-05-11T03:38:24.641Z,100.00
2023-05-11T03:40:53.034Z,100.00
2023-05-11T03:43:21.734Z,100.00
2023-05-11T03:45:54.009Z,100.00
2023-05-11T03:48:22.362Z,100.00
2023-05-11T03:50:49.642Z,100.00
2023-05-11T03:53:16.752Z,100.00
2023-05-11T03:55:43.312Z,100.00
2023-05-11T03:58:10.799Z,100.00
2023-05-11T04:00:39.625Z,100.00
2023-05-11T04:03:06.890Z,100.00
2023-05-11T04:05:33.550Z,100.00
2023-05-11T04:08:03.922Z,100.00
2023-05-11T04:10:30.545Z,100.00
2023-05-11T04:12:57.097Z,100.00
2023-05-11T04:15:23.578Z,100.00
2023-05-11T04:17:50.040Z,100.00
2023-05-11T04:20:16.704Z,100.00
2023-05-11T04:22:44.248Z,100.00
2023-05-11T04:25:11.468Z,100.00
2023-05-11T04:27:38.001Z,100.00
2023-05-11T04:30:05.691Z,100.00
2023-05-11T04:32:32.303Z,100.00
2023-05-11T04:34:59.298Z,100.00
2023-05-11T04:37:28.365Z,100.00
2023-05-11T04:39:54.923Z,100.00
2023-05-11T04:42:21.467Z,100.00
2023-05-11T04:44:54.654Z,100.00
2023-05-11T04:47:22.109Z,100.00
2023-05-11T04:49:49.092Z,100.00
2023-05-11T04:52:15.952Z,100.00
2023-05-11T04:54:45.211Z,100.00
2023-05-11T04:57:11.866Z,100.00
2023-05-11T04:59:38.545Z,100.00
2023-05-11T05:02:05.070Z,100.00
2023-05-11T05:04:32.557Z,100.00
2023-05-11T05:07:00.812Z,100.00
2023-05-11T05:09:27.296Z,100.00
2023-05-11T05:11:53.817Z,100.00
2023-05-11T05:14:20.313Z,100.00
2023-05-11T05:16:46.871Z,100.00
2023-05-11T05:19:13.402Z,100.00
2023-05-11T05:21:40.700Z,100.00
2023-05-11T05:24:11.045Z,100.00
2023-05-11T05:26:37.781Z,100.00
2023-05-11T05:29:05.756Z,100.00
2023-05-11T05:31:32.511Z,100.00
2023-05-11T05:33:59.414Z,100.00
2023-05-11T05:36:25.912Z,100.00
2023-05-11T05:38:52.518Z,99.58
2023-05-11T05:41:19.237Z,99.04
2023-05-11T05:43:46.249Z,97.86
2023-05-11T05:46:13.279Z,96.46
2023-05-11T05:48:39.974Z,95.74
2023-05-11T05:51:06.519Z,95.03
2023-05-11T05:53:33.120Z,94.57
2023-05-11T05:55:59.557Z,95.18
2023-05-11T05:58:26.203Z,95.57
2023-05-11T06:00:52.738Z,95.93
2023-05-11T06:03:19.396Z,95.44
2023-05-11T06:05:46.030Z,95.00
2023-05-11T06:08:12.450Z,95.88
2023-05-11T06:10:39.570Z,96.72
2023-05-11T06:13:08.175Z,96.80
2023-05-11T06:15:35.360Z,96.73
2023-05-11T06:18:08.832Z,96.99
2023-05-11T06:20:35.884Z,96.75
2023-05-11T06:23:04.602Z,96.35
2023-05-11T06:25:35.713Z,96.16
2023-05-11T06:28:03.066Z,96.77
2023-05-11T06:30:31.208Z,96.26
2023-05-11T06:32:58.657Z,96.06
2023-05-11T06:35:25.420Z,95.83
2023-05-11T06:37:52.454Z,95.52
2023-05-11T06:40:19.320Z,95.79
2023-05-11T06:42:46.046Z,95.89
2023-05-11T06:45:12.926Z,96.15
2023-05-11T06:47:42.281Z,95.34
2023-05-11T06:50:09.895Z,95.43
2023-05-11T06:52:37.581Z,95.69
2023-05-11T06:55:04.481Z,95.09
2023-05-11T06:57:31.048Z,94.12
2023-05-11T06:59:58.105Z,93.49
2023-05-11T07:02:24.888Z,94.71
2023-05-11T07:04:51.408Z,94.24
2023-05-11T07:07:17.977Z,94.07
2023-05-11T07:09:44.502Z,94.51
2023-05-11T07:12:11.139Z,93.27
2023-05-11T07:14:38.202Z,92.90
2023-05-11T07:17:04.670Z,92.22
2023-05-11T07:19:31.156Z,91.57
2023-05-11T07:21:58.030Z,92.19
2023-05-11T07:24:24.514Z,92.20
2023-05-11T07:26:51.913Z,92.80
2023-05-11T07:29:19.712Z,91.93
2023-05-11T07:31:46.482Z,92.55
2023-05-11T07:34:12.967Z,93.35
2023-05-11T07:36:39.450Z,91.16
2023-05-11T07:39:06.048Z,90.60
2023-05-11T07:41:32.574Z,89.09
2023-05-11T07:44:00.942Z,84.28
2023-05-11T07:46:27.612Z,86.63
2023-05-11T07:49:03.458Z,86.19
2023-05-11T07:51:40.710Z,86.96
2023-05-11T07:54:07.251Z,87.51
2023-05-11T07:56:33.742Z,89.51
2023-05-11T07:59:00.233Z,89.49
2023-05-11T08:01:26.885Z,90.11
2023-05-11T08:03:53.375Z,89.39
2023-05-11T08:06:19.960Z,88.84
2023-05-11T08:08:46.508Z,85.65
2023-05-11T08:11:12.945Z,84.13
2023-05-11T08:13:39.359Z,85.37
2023-05-11T08:16:06.630Z,86.51
2023-05-11T08:18:33.178Z,87.03
2023-05-11T08:21:00.163Z,83.21
2023-05-11T08:23:26.664Z,82.14
2023-05-11T08:25:56.053Z,81.91
2023-05-11T08:28:22.600Z,82.42
2023-05-11T08:30:56.619Z,82.75
2023-05-11T08:35:56.318Z,80.62
2023-05-11T08:38:22.751Z,76.92
2023-05-11T08:40:51.138Z,78.37
2023-05-11T08:43:19.000Z,80.01
2023-05-11T08:45:49.705Z,78.34
2023-05-11T08:48:21.098Z,79.23
2023-05-11T08:50:48.033Z,76.18
2023-05-11T08:53:14.781Z,75.50
2023-05-11T08:55:42.898Z,78.09
2023-05-11T08:58:10.354Z,71.96
2023-05-11T09:00:37.446Z,64.96
2023-05-11T09:03:04.815Z,71.38
2023-05-11T09:05:32.502Z,65.20
2023-05-11T09:08:05.488Z,63.75
2023-05-11T09:10:32.512Z,68.11
2023-05-11T09:12:58.902Z,59.94
2023-05-11T09:15:25.363Z,59.21
2023-05-11T09:17:51.790Z,62.58
2023-05-11T09:20:27.838Z,60.00
2023-05-11T09:22:55.606Z,53.37
2023-05-11T09:25:23.455Z,54.79
2023-05-11T09:27:49.941Z,56.31
2023-05-11T09:30:22.270Z,54.55
2023-05-11T09:32:57.563Z,58.46
2023-05-11T09:35:25.371Z,57.30
2023-05-11T09:38:10.137Z,55.56
2023-05-11T09:40:51.579Z,53.64
2023-05-11T09:43:26.094Z,57.16
2023-05-11T09:45:57.931Z,59.73
2023-05-11T09:48:29.542Z,53.47
2023-05-11T09:51:07.219Z,59.33
2023-05-11T09:53:39.354Z,56.19
2023-05-11T09:56:06.184Z,61.67
2023-05-11T09:58:47.713Z,60.80
2023-05-11T10:01:15.528Z,57.97
2023-05-11T10:03:58.179Z,59.98
2023-05-11T10:06:50.774Z,62.65
2023-05-11T10:09:19.147Z,62.12
2023-05-11T10:11:46.565Z,63.35
2023-05-11T10:14:14.214Z,68.40
2023-05-11T10:16:46.430Z,67.77
2023-05-11T10:19:13.799Z,70.48
2023-05-11T10:21:41.038Z,71.04
2023-05-11T10:24:08.216Z,72.54
2023-05-11T10:26:35.054Z,73.96
2023-05-11T10:29:01.780Z,73.97
2023-05-11T10:31:29.863Z,75.22
2023-05-11T10:33:57.258Z,76.57
2023-05-11T10:36:25.417Z,77.09
2023-05-11T10:38:51.869Z,77.89
2023-05-11T10:41:46.658Z,78.40
2023-05-11T10:44:40.540Z,78.64
2023-05-11T10:47:28.065Z,81.01
2023-05-11T10:50:38.077Z,82.03
2023-05-11T10:53:13.889Z,83.06
2023-05-11T10:56:01.944Z,85.83
2023-05-11T10:58:34.075Z,88.93
2023-05-11T11:01:25.850Z,89.73
2023-05-11T11:04:00.334Z,91.92
2023-05-11T11:06:28.370Z,92.53
2023-05-11T11:08:57.872Z,94.01
2023-05-11T11:11:42.412Z,93.84
2023-05-11T11:14:10.316Z,93.86
2023-05-11T11:16:37.523Z,93.50
2023-05-11T11:19:36.441Z,94.76
2023-05-11T11:22:03.512Z,95.31
2023-05-11T11:24:39.164Z,94.82
2023-05-11T11:27:07.051Z,95.50
2023-05-11T11:29:35.636Z,95.53
2023-05-11T11:32:20.195Z,96.04
2023-05-11T11:34:48.120Z,96.08
2023-05-11T11:37:16.502Z,96.97
2023-05-11T11:39:43.006Z,96.71
2023-05-11T11:42:11.878Z,96.85
2023-05-11T11:44:38.757Z,96.88
2023-05-11T11:47:16.187Z,96.99
2023-05-11T11:49:45.944Z,97.41
2023-05-11T11:52:33.598Z,97.24
2023-05-11T11:55:01.581Z,97.09
2023-05-11T11:57:33.826Z,97.34
2023-05-11T12:00:10.920Z,96.17
2023-05-11T12:02:45.146Z,96.02
2023-05-11T12:05:23.358Z,96.66
2023-05-11T12:07:52.842Z,96.66
2023-05-11T12:10:21.204Z,97.08
2023-05-11T12:12:49.153Z,95.47
2023-05-11T12:15:25.353Z,96.12
2023-05-11T12:17:51.949Z,95.49
2023-05-11T12:20:19.669Z,95.60
2023-05-11T12:22:48.889Z,94.96
2023-05-11T12:25:18.110Z,94.71
2023-05-11T12:27:58.098Z,93.67
2023-05-11T12:30:26.770Z,94.89
2023-05-11T12:32:57.426Z,94.32
2023-05-11T12:35:29.750Z,93.75
2023-05-11T12:37:57.901Z,92.37
2023-05-11T12:40:24.502Z,91.93
2023-05-11T12:42:52.050Z,93.25
2023-05-11T12:45:20.475Z,91.88
2023-05-11T12:47:49.716Z,92.93
2023-05-11T12:50:16.942Z,93.25
2023-05-11T12:52:43.832Z,93.13
2023-05-11T12:55:11.631Z,91.20
2023-05-11T12:57:40.621Z,92.54
2023-05-11T13:00:12.845Z,93.37
2023-05-11T13:02:50.852Z,92.74
2023-05-11T13:05:21.969Z,92.27
2023-05-11T13:07:57.650Z,91.89
2023-05-11T13:10:25.257Z,92.01
2023-05-11T13:12:52.699Z,90.93
2023-05-11T13:15:21.778Z,90.51
2023-05-11T13:17:55.354Z,90.49
2023-05-11T13:20:26.298Z,90.92
2023-05-11T13:23:10.647Z,87.92
2023-05-11T13:25:46.033Z,87.54
2023-05-11T13:28:18.345Z,86.97
2023-05-11T13:30:46.119Z,87.03
2023-05-11T13:33:12.828Z,88.84
2023-05-11T13:35:40.513Z,90.93
2023-05-11T13:38:07.906Z,92.04
2023-05-11T13:40:35.072Z,90.72
2023-05-11T13:43:01.832Z,90.21
2023-05-11T13:45:28.546Z,89.88
2023-05-11T13:47:55.562Z,89.81
2023-05-11T13:50:23.204Z,89.95
2023-05-11T13:52:51.526Z,91.59
2023-05-11T13:55:18.370Z,91.58
2023-05-11T13:57:45.604Z,92.77
2023-05-11T14:00:12.766Z,92.14
2023-05-11T14:02:39.368Z,93.68
2023-05-11T14:05:06.425Z,93.27
2023-05-11T14:07:45.681Z,93.25
2023-05-11T14:10:14.090Z,92.70
2023-05-11T14:12:41.110Z,92.95
2023-05-11T14:15:08.265Z,91.04
2023-05-11T14:17:34.889Z,91.84
2023-05-11T14:20:01.514Z,91.52
2023-05-11T14:22:33.308Z,91.63
2023-05-11T14:24:59.977Z,89.12
2023-05-11T14:27:26.381Z,90.22
2023-05-11T14:29:52.898Z,89.32
2023-05-11T14:32:19.687Z,88.43
2023-05-11T14:34:46.672Z,86.20
2023-05-11T14:37:13.687Z,87.43
2023-05-11T14:39:41.007Z,88.26
2023-05-11T14:42:07.872Z,88.49
2023-05-11T14:44:34.472Z,86.86
2023-05-11T14:47:03.570Z,86.07
2023-05-11T14:49:30.081Z,86.63
2023-05-11T14:51:57.646Z,85.88
2023-05-11T14:54:24.114Z,84.16
2023-05-11T14:56:53.859Z,85.38
2023-05-11T14:59:22.070Z,85.54
2023-05-11T15:01:49.403Z,84.55
2023-05-11T15:04:19.161Z,81.82
2023-05-11T15:06:46.182Z,84.34
2023-05-11T15:09:12.710Z,85.23
2023-05-11T15:11:39.230Z,84.11
2023-05-11T15:14:07.008Z,83.34
2023-05-11T15:16:33.781Z,84.81
2023-05-11T15:19:00.405Z,83.19
2023-05-11T15:21:27.824Z,84.50
2023-05-11T15:23:54.462Z,82.91
2023-05-11T15:26:22.310Z,84.87
2023-05-11T15:28:49.022Z,82.05
2023-05-11T15:31:15.639Z,82.75
2023-05-11T15:33:42.659Z,82.07
2023-05-11T15:36:13.799Z,80.26
2023-05-11T15:38:41.336Z,83.00
2023-05-11T15:41:07.797Z,79.98
2023-05-11T15:43:34.963Z,82.91
2023-05-11T15:46:03.530Z,81.58
2023-05-11T15:48:30.204Z,82.50
2023-05-11T15:50:58.882Z,81.53
2023-05-11T15:53:25.506Z,80.98
2023-05-11T15:55:55.096Z,81.25
2023-05-11T15:58:21.786Z,80.67
2023-05-11T16:00:48.645Z,83.10
2023-05-11T16:03:15.424Z,82.11
2023-05-11T16:05:41.914Z,81.64
2023-05-11T16:08:08.410Z,83.72
2023-05-11T16:10:34.890Z,83.16
2023-05-11T16:13:01.301Z,82.37
2023-05-11T16:15:29.352Z,81.66
2023-05-11T16:17:55.915Z,80.96
2023-05-11T16:20:22.436Z,80.92
2023-05-11T16:22:48.885Z,81.79
2023-05-11T16:25:16.018Z,80.94
2023-05-11T16:27:42.622Z,82.14
2023-05-11T16:30:22.359Z,82.03
2023-05-11T16:32:54.022Z,80.25
2023-05-11T16:35:30.839Z,80.16
2023-05-11T16:37:59.147Z,81.70
2023-05-11T16:40:26.000Z,80.93
2023-05-11T16:42:53.599Z,82.87
2023-05-11T16:45:20.218Z,83.54
2023-05-11T16:47:47.509Z,84.04
2023-05-11T16:50:15.758Z,82.70
2023-05-11T16:52:42.639Z,82.55
2023-05-11T16:55:10.944Z,82.96
2023-05-11T16:57:37.626Z,83.84
2023-05-11T17:00:04.715Z,82.67
2023-05-11T17:02:31.347Z,84.07
2023-05-11T17:04:57.837Z,83.57
2023-05-11T17:07:26.136Z,84.09
2023-05-11T17:09:56.824Z,83.72
2023-05-11T17:12:23.995Z,83.73
2023-05-11T17:14:50.503Z,84.61
2023-05-11T17:17:17.295Z,84.18
2023-05-11T17:19:45.260Z,85.22
2023-05-11T17:22:11.690Z,84.93
2023-05-11T17:24:38.317Z,85.06
2023-05-11T17:27:05.008Z,85.73
2023-05-11T17:29:31.531Z,85.23
2023-05-11T17:31:58.166Z,86.98
2023-05-11T17:34:28.287Z,86.15
2023-05-11T17:36:56.839Z,86.59
2023-05-11T17:39:23.538Z,87.46
2023-05-11T17:41:50.026Z,86.99
2023-05-11T17:44:16.571Z,87.87
2023-05-11T17:46:43.249Z,88.37
2023-05-11T17:49:10.230Z,88.61
2023-05-11T17:51:37.198Z,89.30
2023-05-11T17:54:03.715Z,89.55
2023-05-11T17:56:34.002Z,90.45
2023-05-11T17:59:00.803Z,89.57
2023-05-11T18:01:27.839Z,89.93
2023-05-11T18:03:54.481Z,89.85
2023-05-11T18:06:21.098Z,89.35
2023-05-11T18:08:48.669Z,90.10
2023-05-11T18:11:15.354Z,90.38
2023-05-11T18:13:41.828Z,89.58
2023-05-11T18:16:08.538Z,90.40
2023-05-11T18:18:35.990Z,91.11
2023-05-11T18:21:06.306Z,90.09
2023-05-11T18:23:33.144Z,89.85
2023-05-11T18:26:00.009Z,90.23
2023-05-11T18:28:26.493Z,89.54
2023-05-11T18:30:54.053Z,89.09
2023-05-11T18:33:20.558Z,89.19
2023-05-11T18:35:47.282Z,89.03
2023-05-11T18:38:14.089Z,89.06
2023-05-11T18:40:40.585Z,90.21
2023-05-11T18:43:07.108Z,90.52
2023-05-11T18:45:34.958Z,91.44
2023-05-11T18:48:02.505Z,90.82
2023-05-11T18:50:29.768Z,91.17
2023-05-11T18:52:57.261Z,91.10
2023-05-11T18:55:25.312Z,90.76
2023-05-11T18:57:52.740Z,91.51
2023-05-11T19:00:20.416Z,91.18
2023-05-11T19:02:48.223Z,91.87
2023-05-11T19:05:15.046Z,92.08
2023-05-11T19:07:41.490Z,91.50
2023-05-11T19:10:08.489Z,91.21
2023-05-11T19:12:35.023Z,91.53
2023-05-11T19:15:01.503Z,91.66
2023-05-11T19:17:28.589Z,91.65
2023-05-11T19:19:56.440Z,91.94
2023-05-11T19:22:24.143Z,92.39
2023-05-11T19:24:50.572Z,92.10
2023-05-11T19:27:17.181Z,91.78
2023-05-11T19:29:44.756Z,91.96
2023-05-11T19:32:11.436Z,92.46
2023-05-11T19:34:38.025Z,92.80
2023-05-11T19:37:04.554Z,92.74
2023-05-11T19:39:31.192Z,92.93
2023-05-11T19:41:57.616Z,92.83
2023-05-11T19:44:24.329Z,93.72
2023-05-11T19:46:50.783Z,93.58
2023-05-11T19:49:17.553Z,93.43
2023-05-11T19:51:44.166Z,93.23
2023-05-11T19:54:11.402Z,93.64
2023-05-11T19:56:38.344Z,93.61
2023-05-11T19:59:04.966Z,93.50
2023-05-11T20:01:31.659Z,93.79
2023-05-11T20:03:58.644Z,93.81
2023-05-11T20:06:25.639Z,94.18
2023-05-11T20:08:52.876Z,94.39
2023-05-11T20:11:19.736Z,94.73
2023-05-11T20:13:47.726Z,94.81
2023-05-11T20:16:14.793Z,95.16
2023-05-11T20:18:42.988Z,95.38
2023-05-11T20:21:09.546Z,95.28
2023-05-11T20:23:37.620Z,95.30
2023-05-11T20:26:04.630Z,95.43
2023-05-11T20:28:31.209Z,95.09
2023-05-11T20:30:57.673Z,95.16
2023-05-11T20:35:53.743Z,94.68
2023-05-11T20:38:20.438Z,94.10
2023-05-11T20:40:46.847Z,94.01
2023-05-11T20:43:15.201Z,94.52
2023-05-11T20:45:42.351Z,95.14
2023-05-11T20:48:09.188Z,95.25
2023-05-11T20:50:35.857Z,95.81
2023-05-11T20:53:02.431Z,96.29
2023-05-11T20:55:28.980Z,96.54
2023-05-11T20:57:55.498Z,96.94
2023-05-11T21:00:22.790Z,96.78
2023-05-11T21:02:49.870Z,97.41
2023-05-11T21:05:16.640Z,97.52
2023-05-11T21:07:43.111Z,97.68
2023-05-11T21:10:11.550Z,97.72
2023-05-11T21:12:37.973Z,97.92
2023-05-11T21:15:05.006Z,97.71
2023-05-11T21:17:31.480Z,97.62
2023-05-11T21:19:57.957Z,97.68
2023-05-11T21:22:24.451Z,97.92
2023-05-11T21:24:50.890Z,97.72
2023-05-11T21:27:17.369Z,97.52
2023-05-11T21:29:43.904Z,97.73
2023-05-11T21:32:11.767Z,97.56
2023-05-11T21:34:38.492Z,97.26
2023-05-11T21:37:05.018Z,96.85
2023-05-11T21:39:31.645Z,97.58
2023-05-11T21:41:58.182Z,97.16
2023-05-11T21:44:24.772Z,96.73
2023-05-11T21:46:51.319Z,96.69
2023-05-11T21:49:17.784Z,96.92
2023-05-11T21:51:44.322Z,96.81
2023-05-11T21:54:10.852Z,96.63
2023-05-11T21:56:37.380Z,96.68
2023-05-11T21:59:03.823Z,96.98
2023-05-11T22:01:30.543Z,97.17
2023-05-11T22:03:57.234Z,97.68
2023-05-11T22:06:23.775Z,97.65
2023-05-11T22:08:50.572Z,97.78
2023-05-11T22:11:17.215Z,98.05
2023-05-11T22:13:44.508Z,97.92
2023-05-11T22:16:11.056Z,97.96
2023-05-11T22:18:37.576Z,97.94
2023-05-11T22:21:04.376Z,98.17
2023-05-11T22:23:32.289Z,98.30
2023-05-11T22:25:58.787Z,98.32
2023-05-11T22:28:25.243Z,97.98
2023-05-11T22:30:51.702Z,98.25
2023-05-11T22:33:18.121Z,97.91
2023-05-11T22:35:44.519Z,97.74
2023-05-11T22:38:11.241Z,97.54
2023-05-11T22:40:37.744Z,97.36
2023-05-11T22:43:04.236Z,97.26
2023-05-11T22:45:30.829Z,97.56
2023-05-11T22:47:57.321Z,98.08
2023-05-11T22:50:23.845Z,98.18
2023-05-11T22:52:50.382Z,98.02
2023-05-11T22:55:16.915Z,98.16
2023-05-11T22:57:43.886Z,98.23
2023-05-11T23:00:11.000Z,98.22
2023-05-11T23:02:38.009Z,98.18
2023-05-11T23:05:04.955Z,98.10
2023-05-11T23:07:31.609Z,98.23
2023-05-11T23:09:58.208Z,97.92
2023-05-11T23:12:24.770Z,98.04
2023-05-11T23:14:51.303Z,97.93
2023-05-11T23:17:18.008Z,98.02
2023-05-11T23:19:44.459Z,97.58
2023-05-11T23:22:10.930Z,97.14
2023-05-11T23:24:37.419Z,97.74
2023-05-11T23:27:04.261Z,97.38
2023-05-11T23:29:32.616Z,97.58
2023-05-11T23:31:59.053Z,97.77
2023-05-11T23:34:27.052Z,98.26
2023-05-11T23:36:53.738Z,98.14
2023-05-11T23:39:21.406Z,98.43
2023-05-11T23:41:47.968Z,98.83
2023-05-11T23:44:14.757Z,98.22
2023-05-11T23:46:41.251Z,98.58
2023-05-11T23:49:07.672Z,98.59
2023-05-11T23:51:34.178Z,98.79
2023-05-11T23:54:00.799Z,99.15
2023-05-11T23:56:27.346Z,98.83
2023-05-11T23:58:54.311Z,98.81
